Marine On Saint Croix, MN

5:18 AM CDT on April 28, 2017 (GMT -0500)
Marine Hills | | Change Station

Elev 951 ft 45.20 °N, 92.80 °W | Updated 1 second ago

Overcast
Overcast
33.8 °F
Feels Like 34 °F
N
2.0
Wind Variable Wind from NE

Today
High -- | Low -- °F
--% Chance of Precip.
Yesterday
High -- | Low -- °F
Precip. -- in
Pressure 29.86 in
Visibility 10.0 miles
Clouds Overcast 4100 ft
Windchill 34 °F
Dew Point 29 °F
Humidity 83%
Rainfall 0.00 in
Snow Depth Not available.
6:04 AM 8:13 PM
Waxing Crescent, 6% visible
METAR KOEO 280955Z AUTO 29009KT 10SM OVC041 02/M03 A2986 RMK AO2 T00151030
Pressure 29.86 in
Visibility 10.0 miles
Clouds Overcast 4100 ft
Windchill 34 °F
Dew Point 29 °F
Humidity 83%
Rainfall 0.00 in
Snow Depth Not available.
6:04 AM 8:13 PM
Waxing Crescent, 6% visible
METAR KOEO 280955Z AUTO 29009KT 10SM OVC041 02/M03 A2986 RMK AO2 T00151030

Get Severe Weather Alerts

Thanks for signing up!

Be on the lookout for a verification email in your inbox.

You'll start receiving the daily forecast at 8 AM.

×

10-Day Weather Forecast

Almanac

Astronomy

Apr. 28, 2017 Rise Set
Actual Time
Civil Twilight
Nautical Twilight
Astronomical Twilight
Moon
Length of Visible Light
Length of Day
Tomorrow will be .
, % of the Moon is Illuminated

Today's Extremes

State Highs State Lows

Community

WunderPhotos

WunderBlog® & News

Nearby

Air Quality

  Air Quality AQ Index Pollutant
Not available.

Snow Depth

Station Depth Elevation

Earthquake Activity

City Distance Mag. Time & Date
Minimum magnitude displayed is 2.5.

Coastal Water Temperatures

Place Temperature

Stations

Nearby Weather Stations

Station Location Temp. Windchill Dew Point Humidity Wind Precip. Elev Updated Type
                   

Watches & Warnings

There are currently no watches in effect.